sensor_id;sensor_type;location;lat;lon;timestamp;temperature;humidity
31819;DHT22;18384;48.860;9.188;2023-04-06T00:02:16;4.90;90.00
31819;DHT22;18384;48.860;9.188;2023-04-06T00:04:42;4.90;89.70
31819;DHT22;18384;48.860;9.188;2023-04-06T00:07:09;4.90;89.70
31819;DHT22;18384;48.860;9.188;2023-04-06T00:09:35;4.90;89.70
31819;DHT22;18384;48.860;9.188;2023-04-06T00:12:01;4.90;89.70
31819;DHT22;18384;48.860;9.188;2023-04-06T00:14:28;4.90;89.80
31819;DHT22;18384;48.860;9.188;2023-04-06T00:16:54;4.80;89.90
31819;DHT22;18384;48.860;9.188;2023-04-06T00:19:20;4.80;89.80
31819;DHT22;18384;48.860;9.188;2023-04-06T00:21:47;4.80;89.50
31819;DHT22;18384;48.860;9.188;2023-04-06T00:24:13;4.70;89.20
31819;DHT22;18384;48.860;9.188;2023-04-06T00:26:39;4.70;89.40
31819;DHT22;18384;48.860;9.188;2023-04-06T00:29:05;4.70;89.40
31819;DHT22;18384;48.860;9.188;2023-04-06T00:31:31;4.70;89.80
31819;DHT22;18384;48.860;9.188;2023-04-06T00:33:58;4.60;90.10
31819;DHT22;18384;48.860;9.188;2023-04-06T00:36:24;4.60;90.00
31819;DHT22;18384;48.860;9.188;2023-04-06T00:38:50;4.60;90.00
31819;DHT22;18384;48.860;9.188;2023-04-06T00:41:17;4.60;90.00
31819;DHT22;18384;48.860;9.188;2023-04-06T00:43:44;4.50;90.10
31819;DHT22;18384;48.860;9.188;2023-04-06T00:46:10;4.50;90.00
31819;DHT22;18384;48.860;9.188;2023-04-06T00:48:36;4.50;90.10
31819;DHT22;18384;48.860;9.188;2023-04-06T00:51:02;4.50;90.10
31819;DHT22;18384;48.860;9.188;2023-04-06T00:53:28;4.40;90.10
31819;DHT22;18384;48.860;9.188;2023-04-06T00:55:54;4.40;90.20
31819;DHT22;18384;48.860;9.188;2023-04-06T00:58:20;4.40;90.30
31819;DHT22;18384;48.860;9.188;2023-04-06T01:00:47;4.40;90.30
31819;DHT22;18384;48.860;9.188;2023-04-06T01:03:13;4.40;90.40
31819;DHT22;18384;48.860;9.188;2023-04-06T01:05:39;4.30;90.30
31819;DHT22;18384;48.860;9.188;2023-04-06T01:08:08;4.30;90.40
31819;DHT22;18384;48.860;9.188;2023-04-06T01:10:35;4.30;90.50
31819;DHT22;18384;48.860;9.188;2023-04-06T01:13:01;4.30;90.50
31819;DHT22;18384;48.860;9.188;2023-04-06T01:15:28;4.30;90.60
31819;DHT22;18384;48.860;9.188;2023-04-06T01:17:55;4.30;90.70
31819;DHT22;18384;48.860;9.188;2023-04-06T01:20:21;4.30;90.60
31819;DHT22;18384;48.860;9.188;2023-04-06T01:22:47;4.30;90.60
31819;DHT22;18384;48.860;9.188;2023-04-06T01:25:13;4.20;90.60
31819;DHT22;18384;48.860;9.188;2023-04-06T01:27:39;4.20;90.60
31819;DHT22;18384;48.860;9.188;2023-04-06T01:30:06;4.10;90.70
31819;DHT22;18384;48.860;9.188;2023-04-06T01:32:33;4.20;90.60
31819;DHT22;18384;48.860;9.188;2023-04-06T01:34:59;4.10;90.70
31819;DHT22;18384;48.860;9.188;2023-04-06T01:37:25;4.10;90.80
31819;DHT22;18384;48.860;9.188;2023-04-06T01:39:51;4.10;90.90
31819;DHT22;18384;48.860;9.188;2023-04-06T01:42:18;4.10;90.80
31819;DHT22;18384;48.860;9.188;2023-04-06T01:44:44;4.00;90.90
31819;DHT22;18384;48.860;9.188;2023-04-06T01:47:10;4.00;91.00
31819;DHT22;18384;48.860;9.188;2023-04-06T01:49:36;4.00;91.10
31819;DHT22;18384;48.860;9.188;2023-04-06T01:52:03;4.00;90.90
31819;DHT22;18384;48.860;9.188;2023-04-06T01:54:29;4.00;90.90
31819;DHT22;18384;48.860;9.188;2023-04-06T01:56:55;4.00;90.90
31819;DHT22;18384;48.860;9.188;2023-04-06T01:59:21;4.00;91.00
31819;DHT22;18384;48.860;9.188;2023-04-06T02:01:47;3.90;91.10
31819;DHT22;18384;48.860;9.188;2023-04-06T02:04:13;4.00;91.10
31819;DHT22;18384;48.860;9.188;2023-04-06T02:06:39;4.00;91.10
31819;DHT22;18384;48.860;9.188;2023-04-06T02:09:06;3.90;90.90
31819;DHT22;18384;48.860;9.188;2023-04-06T02:11:32;4.00;90.80
31819;DHT22;18384;48.860;9.188;2023-04-06T02:13:58;3.90;91.10
31819;DHT22;18384;48.860;9.188;2023-04-06T02:16:26;3.90;91.00
31819;DHT22;18384;48.860;9.188;2023-04-06T02:18:52;3.90;90.90
31819;DHT22;18384;48.860;9.188;2023-04-06T02:21:18;3.90;90.80
31819;DHT22;18384;48.860;9.188;2023-04-06T02:23:46;3.90;90.70
31819;DHT22;18384;48.860;9.188;2023-04-06T02:26:13;3.80;91.00
31819;DHT22;18384;48.860;9.188;2023-04-06T02:28:39;3.80;91.20
31819;DHT22;18384;48.860;9.188;2023-04-06T02:31:05;3.80;91.30
31819;DHT22;18384;48.860;9.188;2023-04-06T02:33:31;3.80;91.20
31819;DHT22;18384;48.860;9.188;2023-04-06T02:35:57;3.80;91.20
31819;DHT22;18384;48.860;9.188;2023-04-06T02:38:24;3.80;91.30
31819;DHT22;18384;48.860;9.188;2023-04-06T02:40:50;3.80;91.40
31819;DHT22;18384;48.860;9.188;2023-04-06T02:43:16;3.80;91.40
31819;DHT22;18384;48.860;9.188;2023-04-06T02:45:42;3.70;91.40
31819;DHT22;18384;48.860;9.188;2023-04-06T02:48:08;3.80;91.60
31819;DHT22;18384;48.860;9.188;2023-04-06T02:50:35;3.70;91.40
31819;DHT22;18384;48.860;9.188;2023-04-06T02:53:01;3.70;91.40
31819;DHT22;18384;48.860;9.188;2023-04-06T02:55:27;3.70;91.60
31819;DHT22;18384;48.860;9.188;2023-04-06T02:57:53;3.70;91.50
31819;DHT22;18384;48.860;9.188;2023-04-06T03:00:19;3.70;91.50
31819;DHT22;18384;48.860;9.188;2023-04-06T03:02:46;3.70;91.40
31819;DHT22;18384;48.860;9.188;2023-04-06T03:05:12;3.70;91.50
31819;DHT22;18384;48.860;9.188;2023-04-06T03:07:38;3.70;91.60
31819;DHT22;18384;48.860;9.188;2023-04-06T03:10:05;3.70;91.40
31819;DHT22;18384;48.860;9.188;2023-04-06T03:12:31;3.70;91.40
31819;DHT22;18384;48.860;9.188;2023-04-06T03:14:57;3.70;91.50
31819;DHT22;18384;48.860;9.188;2023-04-06T03:17:23;3.60;91.70
31819;DHT22;18384;48.860;9.188;2023-04-06T03:19:49;3.70;91.70
31819;DHT22;18384;48.860;9.188;2023-04-06T03:22:16;3.90;91.60
31819;DHT22;18384;48.860;9.188;2023-04-06T03:24:42;3.60;91.70
31819;DHT22;18384;48.860;9.188;2023-04-06T03:27:08;3.60;91.70
31819;DHT22;18384;48.860;9.188;2023-04-06T03:29:34;3.60;91.80
31819;DHT22;18384;48.860;9.188;2023-04-06T03:32:01;3.60;91.70
31819;DHT22;18384;48.860;9.188;2023-04-06T03:34:27;3.60;91.70
31819;DHT22;18384;48.860;9.188;2023-04-06T03:36:53;3.60;91.90
31819;DHT22;18384;48.860;9.188;2023-04-06T03:39:19;3.60;92.00
31819;DHT22;18384;48.860;9.188;2023-04-06T03:41:45;3.60;92.10
31819;DHT22;18384;48.860;9.188;2023-04-06T03:44:11;3.60;92.00
31819;DHT22;18384;48.860;9.188;2023-04-06T03:46:37;3.50;92.00
31819;DHT22;18384;48.860;9.188;2023-04-06T03:49:03;3.50;92.00
31819;DHT22;18384;48.860;9.188;2023-04-06T03:51:30;3.50;92.10
31819;DHT22;18384;48.860;9.188;2023-04-06T03:53:56;3.50;92.10
31819;DHT22;18384;48.860;9.188;2023-04-06T03:56:22;3.40;92.10
31819;DHT22;18384;48.860;9.188;2023-04-06T03:58:48;3.40;92.10
31819;DHT22;18384;48.860;9.188;2023-04-06T04:01:17;3.40;92.20
31819;DHT22;18384;48.860;9.188;2023-04-06T04:03:46;3.30;92.30
31819;DHT22;18384;48.860;9.188;2023-04-06T04:06:12;3.30;92.40
31819;DHT22;18384;48.860;9.188;2023-04-06T04:08:38;3.30;92.30
31819;DHT22;18384;48.860;9.188;2023-04-06T04:11:04;3.30;92.30
31819;DHT22;18384;48.860;9.188;2023-04-06T04:13:31;3.30;92.30
31819;DHT22;18384;48.860;9.188;2023-04-06T04:15:57;3.30;92.30
31819;DHT22;18384;48.860;9.188;2023-04-06T04:18:24;3.30;92.40
31819;DHT22;18384;48.860;9.188;2023-04-06T04:20:50;3.30;92.50
31819;DHT22;18384;48.860;9.188;2023-04-06T04:23:16;3.30;92.40
31819;DHT22;18384;48.860;9.188;2023-04-06T04:25:43;3.30;92.40
31819;DHT22;18384;48.860;9.188;2023-04-06T04:28:09;3.30;92.50
31819;DHT22;18384;48.860;9.188;2023-04-06T04:30:35;3.20;92.50
31819;DHT22;18384;48.860;9.188;2023-04-06T04:33:01;3.30;92.50
31819;DHT22;18384;48.860;9.188;2023-04-06T04:35:27;3.30;92.60
31819;DHT22;18384;48.860;9.188;2023-04-06T04:37:54;3.20;92.70
31819;DHT22;18384;48.860;9.188;2023-04-06T04:40:20;3.20;92.50
31819;DHT22;18384;48.860;9.188;2023-04-06T04:42:46;3.20;92.70
31819;DHT22;18384;48.860;9.188;2023-04-06T04:45:12;3.20;92.70
31819;DHT22;18384;48.860;9.188;2023-04-06T04:47:38;3.20;92.60
31819;DHT22;18384;48.860;9.188;2023-04-06T04:50:05;3.20;92.70
31819;DHT22;18384;48.860;9.188;2023-04-06T04:52:31;3.20;92.80
31819;DHT22;18384;48.860;9.188;2023-04-06T04:54:57;3.20;92.80
31819;DHT22;18384;48.860;9.188;2023-04-06T04:57:23;3.20;92.80
31819;DHT22;18384;48.860;9.188;2023-04-06T04:59:50;3.20;92.80
31819;DHT22;18384;48.860;9.188;2023-04-06T05:02:16;3.20;92.80
31819;DHT22;18384;48.860;9.188;2023-04-06T05:04:42;3.20;92.90
31819;DHT22;18384;48.860;9.188;2023-04-06T05:07:09;3.20;92.80
31819;DHT22;18384;48.860;9.188;2023-04-06T05:09:35;3.10;93.10
31819;DHT22;18384;48.860;9.188;2023-04-06T05:12:01;3.10;93.10
31819;DHT22;18384;48.860;9.188;2023-04-06T05:14:27;3.20;93.00
31819;DHT22;18384;48.860;9.188;2023-04-06T05:16:54;3.20;93.10
31819;DHT22;18384;48.860;9.188;2023-04-06T05:19:20;3.30;93.10
31819;DHT22;18384;48.860;9.188;2023-04-06T05:21:46;3.20;93.10
31819;DHT22;18384;48.860;9.188;2023-04-06T05:24:12;3.30;93.10
31819;DHT22;18384;48.860;9.188;2023-04-06T05:26:38;3.30;93.10
31819;DHT22;18384;48.860;9.188;2023-04-06T05:29:04;3.30;93.00
31819;DHT22;18384;48.860;9.188;2023-04-06T05:31:31;3.40;93.00
31819;DHT22;18384;48.860;9.188;2023-04-06T05:33:57;3.40;93.00
31819;DHT22;18384;48.860;9.188;2023-04-06T05:36:23;3.40;92.80
31819;DHT22;18384;48.860;9.188;2023-04-06T05:38:49;3.50;92.80
31819;DHT22;18384;48.860;9.188;2023-04-06T05:41:16;3.60;92.70
31819;DHT22;18384;48.860;9.188;2023-04-06T05:43:42;3.60;92.60
31819;DHT22;18384;48.860;9.188;2023-04-06T05:46:08;3.70;92.70
31819;DHT22;18384;48.860;9.188;2023-04-06T05:48:34;3.70;92.70
31819;DHT22;18384;48.860;9.188;2023-04-06T05:51:00;3.80;92.50
31819;DHT22;18384;48.860;9.188;2023-04-06T05:53:30;3.80;92.40
31819;DHT22;18384;48.860;9.188;2023-04-06T05:55:56;3.90;92.30
31819;DHT22;18384;48.860;9.188;2023-04-06T05:58:22;3.90;92.40
31819;DHT22;18384;48.860;9.188;2023-04-06T06:00:48;3.90;92.20
31819;DHT22;18384;48.860;9.188;2023-04-06T06:03:15;4.00;92.30
31819;DHT22;18384;48.860;9.188;2023-04-06T06:05:41;4.00;92.10
31819;DHT22;18384;48.860;9.188;2023-04-06T06:08:07;4.10;92.10
31819;DHT22;18384;48.860;9.188;2023-04-06T06:10:33;4.20;91.90
31819;DHT22;18384;48.860;9.188;2023-04-06T06:12:59;4.20;91.80
31819;DHT22;18384;48.860;9.188;2023-04-06T06:15:25;4.30;91.80
31819;DHT22;18384;48.860;9.188;2023-04-06T06:17:52;4.40;91.60
31819;DHT22;18384;48.860;9.188;2023-04-06T06:20:18;4.40;91.70
31819;DHT22;18384;48.860;9.188;2023-04-06T06:22:44;4.50;91.70
31819;DHT22;18384;48.860;9.188;2023-04-06T06:25:10;4.60;91.60
31819;DHT22;18384;48.860;9.188;2023-04-06T06:27:36;4.60;91.50
31819;DHT22;18384;48.860;9.188;2023-04-06T06:30:03;4.60;91.30
31819;DHT22;18384;48.860;9.188;2023-04-06T06:32:29;4.70;91.50
31819;DHT22;18384;48.860;9.188;2023-04-06T06:34:55;4.70;91.50
31819;DHT22;18384;48.860;9.188;2023-04-06T06:37:21;4.80;90.90
31819;DHT22;18384;48.860;9.188;2023-04-06T06:42:17;4.90;91.00
31819;DHT22;18384;48.860;9.188;2023-04-06T06:44:43;4.90;91.20
31819;DHT22;18384;48.860;9.188;2023-04-06T06:47:09;5.00;91.10
31819;DHT22;18384;48.860;9.188;2023-04-06T06:49:35;5.00;90.80
31819;DHT22;18384;48.860;9.188;2023-04-06T06:52:01;5.10;90.80
31819;DHT22;18384;48.860;9.188;2023-04-06T06:54:27;5.20;90.80
31819;DHT22;18384;48.860;9.188;2023-04-06T06:56:53;5.30;90.70
31819;DHT22;18384;48.860;9.188;2023-04-06T06:59:20;5.30;90.30
31819;DHT22;18384;48.860;9.188;2023-04-06T07:01:46;5.40;90.40
31819;DHT22;18384;48.860;9.188;2023-04-06T07:04:12;5.40;90.50
31819;DHT22;18384;48.860;9.188;2023-04-06T07:06:38;5.50;90.40
31819;DHT22;18384;48.860;9.188;2023-04-06T07:09:04;5.60;90.20
31819;DHT22;18384;48.860;9.188;2023-04-06T07:11:30;5.70;90.30
31819;DHT22;18384;48.860;9.188;2023-04-06T07:13:57;5.70;90.00
31819;DHT22;18384;48.860;9.188;2023-04-06T07:16:23;5.70;90.00
31819;DHT22;18384;48.860;9.188;2023-04-06T07:18:49;5.80;90.00
31819;DHT22;18384;48.860;9.188;2023-04-06T07:21:15;5.80;89.20
31819;DHT22;18384;48.860;9.188;2023-04-06T07:23:41;5.90;89.30
31819;DHT22;18384;48.860;9.188;2023-04-06T07:26:07;5.90;89.70
31819;DHT22;18384;48.860;9.188;2023-04-06T07:28:33;5.50;89.40
31819;DHT22;18384;48.860;9.188;2023-04-06T07:31:00;6.10;89.20
31819;DHT22;18384;48.860;9.188;2023-04-06T07:33:26;6.20;89.10
31819;DHT22;18384;48.860;9.188;2023-04-06T07:35:55;6.20;89.00
31819;DHT22;18384;48.860;9.188;2023-04-06T07:38:22;6.30;89.20
31819;DHT22;18384;48.860;9.188;2023-04-06T07:40:48;6.40;88.80
31819;DHT22;18384;48.860;9.188;2023-04-06T07:43:14;6.40;88.40
31819;DHT22;18384;48.860;9.188;2023-04-06T07:45:41;6.50;88.40
31819;DHT22;18384;48.860;9.188;2023-04-06T07:48:07;6.60;88.20
31819;DHT22;18384;48.860;9.188;2023-04-06T07:50:33;6.70;87.00
31819;DHT22;18384;48.860;9.188;2023-04-06T07:52:59;6.80;87.10
31819;DHT22;18384;48.860;9.188;2023-04-06T07:55:25;6.90;86.40
31819;DHT22;18384;48.860;9.188;2023-04-06T07:57:52;6.90;85.90
31819;DHT22;18384;48.860;9.188;2023-04-06T08:00:18;7.00;85.70
31819;DHT22;18384;48.860;9.188;2023-04-06T08:02:44;7.00;85.70
31819;DHT22;18384;48.860;9.188;2023-04-06T08:05:10;7.20;85.40
31819;DHT22;18384;48.860;9.188;2023-04-06T08:07:36;7.10;84.90
31819;DHT22;18384;48.860;9.188;2023-04-06T08:10:03;7.20;84.20
31819;DHT22;18384;48.860;9.188;2023-04-06T08:12:29;7.20;84.20
31819;DHT22;18384;48.860;9.188;2023-04-06T08:14:55;7.40;84.90
31819;DHT22;18384;48.860;9.188;2023-04-06T08:17:22;7.50;84.00
31819;DHT22;18384;48.860;9.188;2023-04-06T08:19:48;7.50;84.60
31819;DHT22;18384;48.860;9.188;2023-04-06T08:22:14;7.60;83.90
31819;DHT22;18384;48.860;9.188;2023-04-06T08:24:40;7.70;83.70
31819;DHT22;18384;48.860;9.188;2023-04-06T08:27:07;7.80;83.50
31819;DHT22;18384;48.860;9.188;2023-04-06T08:29:33;7.80;83.00
31819;DHT22;18384;48.860;9.188;2023-04-06T08:32:01;7.90;83.20
31819;DHT22;18384;48.860;9.188;2023-04-06T08:34:31;8.00;83.30
31819;DHT22;18384;48.860;9.188;2023-04-06T08:36:58;8.10;82.40
31819;DHT22;18384;48.860;9.188;2023-04-06T08:39:24;8.20;82.20
31819;DHT22;18384;48.860;9.188;2023-04-06T08:41:52;8.20;82.70
31819;DHT22;18384;48.860;9.188;2023-04-06T08:44:18;8.30;81.70
31819;DHT22;18384;48.860;9.188;2023-04-06T08:46:44;8.40;82.10
31819;DHT22;18384;48.860;9.188;2023-04-06T08:49:11;8.50;81.00
31819;DHT22;18384;48.860;9.188;2023-04-06T08:51:38;8.50;78.70
31819;DHT22;18384;48.860;9.188;2023-04-06T08:54:05;8.60;79.30
31819;DHT22;18384;48.860;9.188;2023-04-06T08:56:31;8.60;79.50
31819;DHT22;18384;48.860;9.188;2023-04-06T08:58:57;8.60;79.70
31819;DHT22;18384;48.860;9.188;2023-04-06T09:01:25;8.70;79.90
31819;DHT22;18384;48.860;9.188;2023-04-06T09:03:56;8.90;80.20
31819;DHT22;18384;48.860;9.188;2023-04-06T09:06:25;9.00;79.80
31819;DHT22;18384;48.860;9.188;2023-04-06T09:08:52;9.10;79.50
31819;DHT22;18384;48.860;9.188;2023-04-06T09:11:20;9.20;80.00
31819;DHT22;18384;48.860;9.188;2023-04-06T09:13:54;9.30;77.40
31819;DHT22;18384;48.860;9.188;2023-04-06T09:16:21;9.30;76.40
31819;DHT22;18384;48.860;9.188;2023-04-06T09:18:49;9.40;77.00
31819;DHT22;18384;48.860;9.188;2023-04-06T09:21:18;9.40;75.30
31819;DHT22;18384;48.860;9.188;2023-04-06T09:23:45;9.40;75.60
31819;DHT22;18384;48.860;9.188;2023-04-06T09:26:17;9.40;74.50
31819;DHT22;18384;48.860;9.188;2023-04-06T09:28:52;9.40;75.30
31819;DHT22;18384;48.860;9.188;2023-04-06T09:31:26;9.50;74.50
31819;DHT22;18384;48.860;9.188;2023-04-06T09:33:54;9.50;75.60
31819;DHT22;18384;48.860;9.188;2023-04-06T09:36:33;9.60;74.80
31819;DHT22;18384;48.860;9.188;2023-04-06T09:39:04;9.70;73.30
31819;DHT22;18384;48.860;9.188;2023-04-06T09:41:32;9.70;72.90
31819;DHT22;18384;48.860;9.188;2023-04-06T09:44:04;9.80;74.30
31819;DHT22;18384;48.860;9.188;2023-04-06T09:46:41;9.90;72.60
31819;DHT22;18384;48.860;9.188;2023-04-06T09:49:09;10.00;73.60
31819;DHT22;18384;48.860;9.188;2023-04-06T09:51:45;10.10;72.70
31819;DHT22;18384;48.860;9.188;2023-04-06T09:54:22;10.20;73.40
31819;DHT22;18384;48.860;9.188;2023-04-06T09:58:10;10.10;70.40
31819;DHT22;18384;48.860;9.188;2023-04-06T10:01:40;10.10;71.10
31819;DHT22;18384;48.860;9.188;2023-04-06T10:04:22;10.10;72.90
31819;DHT22;18384;48.860;9.188;2023-04-06T10:07:03;10.20;72.20
31819;DHT22;18384;48.860;9.188;2023-04-06T10:09:30;10.20;70.00
31819;DHT22;18384;48.860;9.188;2023-04-06T10:12:05;10.30;71.10
31819;DHT22;18384;48.860;9.188;2023-04-06T10:14:33;10.30;70.10
31819;DHT22;18384;48.860;9.188;2023-04-06T10:17:04;10.40;69.20
31819;DHT22;18384;48.860;9.188;2023-04-06T10:19:46;10.40;68.60
31819;DHT22;18384;48.860;9.188;2023-04-06T10:22:26;10.40;67.00
31819;DHT22;18384;48.860;9.188;2023-04-06T10:25:16;10.50;68.80
31819;DHT22;18384;48.860;9.188;2023-04-06T10:27:42;10.50;68.90
31819;DHT22;18384;48.860;9.188;2023-04-06T10:30:09;10.50;68.70
31819;DHT22;18384;48.860;9.188;2023-04-06T10:32:36;10.60;68.00
31819;DHT22;18384;48.860;9.188;2023-04-06T10:35:10;10.60;68.80
31819;DHT22;18384;48.860;9.188;2023-04-06T10:38:38;10.60;68.70
31819;DHT22;18384;48.860;9.188;2023-04-06T10:41:09;10.70;70.40
31819;DHT22;18384;48.860;9.188;2023-04-06T10:43:38;10.80;66.60
31819;DHT22;18384;48.860;9.188;2023-04-06T10:46:08;10.90;65.20
31819;DHT22;18384;48.860;9.188;2023-04-06T10:48:45;10.90;64.90
31819;DHT22;18384;48.860;9.188;2023-04-06T10:51:15;10.90;64.50
31819;DHT22;18384;48.860;9.188;2023-04-06T10:53:47;10.90;66.50
31819;DHT22;18384;48.860;9.188;2023-04-06T10:56:15;10.90;65.90
31819;DHT22;18384;48.860;9.188;2023-04-06T10:58:46;11.10;66.90
31819;DHT22;18384;48.860;9.188;2023-04-06T11:01:17;11.10;65.50
31819;DHT22;18384;48.860;9.188;2023-04-06T11:03:48;11.10;64.00
31819;DHT22;18384;48.860;9.188;2023-04-06T11:06:26;11.10;65.10
31819;DHT22;18384;48.860;9.188;2023-04-06T11:08:55;11.20;67.70
31819;DHT22;18384;48.860;9.188;2023-04-06T11:11:23;11.40;67.20
31819;DHT22;18384;48.860;9.188;2023-04-06T11:13:56;11.40;66.20
31819;DHT22;18384;48.860;9.188;2023-04-06T11:16:27;11.50;65.70
31819;DHT22;18384;48.860;9.188;2023-04-06T11:18:57;11.50;65.00
31819;DHT22;18384;48.860;9.188;2023-04-06T11:21:38;11.60;65.50
31819;DHT22;18384;48.860;9.188;2023-04-06T11:24:22;11.50;65.20
31819;DHT22;18384;48.860;9.188;2023-04-06T11:26:54;11.60;66.60
31819;DHT22;18384;48.860;9.188;2023-04-06T11:29:23;11.60;68.00
31819;DHT22;18384;48.860;9.188;2023-04-06T11:31:54;11.70;65.30
31819;DHT22;18384;48.860;9.188;2023-04-06T11:34:32;11.60;65.10
31819;DHT22;18384;48.860;9.188;2023-04-06T11:37:04;11.70;65.00
31819;DHT22;18384;48.860;9.188;2023-04-06T11:39:50;11.70;63.40
31819;DHT22;18384;48.860;9.188;2023-04-06T11:42:28;11.70;65.20
31819;DHT22;18384;48.860;9.188;2023-04-06T11:44:59;11.80;65.40
31819;DHT22;18384;48.860;9.188;2023-04-06T11:47:30;11.90;66.00
31819;DHT22;18384;48.860;9.188;2023-04-06T11:50:11;12.00;65.50
31819;DHT22;18384;48.860;9.188;2023-04-06T11:52:39;12.00;65.10
31819;DHT22;18384;48.860;9.188;2023-04-06T11:55:11;11.90;62.70
31819;DHT22;18384;48.860;9.188;2023-04-06T11:57:42;11.90;62.70
31819;DHT22;18384;48.860;9.188;2023-04-06T12:00:12;11.90;62.30
31819;DHT22;18384;48.860;9.188;2023-04-06T12:02:39;12.00;63.70
31819;DHT22;18384;48.860;9.188;2023-04-06T12:05:06;11.90;62.60
31819;DHT22;18384;48.860;9.188;2023-04-06T12:07:33;12.00;63.30
31819;DHT22;18384;48.860;9.188;2023-04-06T12:10:00;12.00;63.30
31819;DHT22;18384;48.860;9.188;2023-04-06T12:12:28;12.20;63.10
31819;DHT22;18384;48.860;9.188;2023-04-06T12:14:55;12.30;61.60
31819;DHT22;18384;48.860;9.188;2023-04-06T12:17:21;12.40;64.20
31819;DHT22;18384;48.860;9.188;2023-04-06T12:19:47;12.40;64.00
31819;DHT22;18384;48.860;9.188;2023-04-06T12:22:13;12.50;63.10
31819;DHT22;18384;48.860;9.188;2023-04-06T12:24:40;12.50;61.50
31819;DHT22;18384;48.860;9.188;2023-04-06T12:27:06;12.50;62.30
31819;DHT22;18384;48.860;9.188;2023-04-06T12:29:34;12.60;62.30
31819;DHT22;18384;48.860;9.188;2023-04-06T12:32:00;12.50;61.30
31819;DHT22;18384;48.860;9.188;2023-04-06T12:34:27;12.60;61.70
31819;DHT22;18384;48.860;9.188;2023-04-06T12:36:53;12.60;61.00
31819;DHT22;18384;48.860;9.188;2023-04-06T12:39:19;12.60;62.60
31819;DHT22;18384;48.860;9.188;2023-04-06T12:41:47;12.60;61.70
31819;DHT22;18384;48.860;9.188;2023-04-06T12:44:13;12.60;62.10
31819;DHT22;18384;48.860;9.188;2023-04-06T12:46:39;12.70;61.30
31819;DHT22;18384;48.860;9.188;2023-04-06T12:49:06;12.70;62.00
31819;DHT22;18384;48.860;9.188;2023-04-06T12:51:32;12.80;61.40
31819;DHT22;18384;48.860;9.188;2023-04-06T12:53:58;12.90;63.20
31819;DHT22;18384;48.860;9.188;2023-04-06T12:56:24;13.00;61.40
31819;DHT22;18384;48.860;9.188;2023-04-06T12:58:51;13.10;60.00
31819;DHT22;18384;48.860;9.188;2023-04-06T13:01:18;13.10;60.30
31819;DHT22;18384;48.860;9.188;2023-04-06T13:03:45;13.10;59.20
31819;DHT22;18384;48.860;9.188;2023-04-06T13:06:11;13.20;61.30
31819;DHT22;18384;48.860;9.188;2023-04-06T13:08:38;13.30;60.40
31819;DHT22;18384;48.860;9.188;2023-04-06T13:11:05;13.30;59.10
31819;DHT22;18384;48.860;9.188;2023-04-06T13:13:33;13.30;58.50
31819;DHT22;18384;48.860;9.188;2023-04-06T13:16:07;13.30;59.60
31819;DHT22;18384;48.860;9.188;2023-04-06T13:18:34;13.40;58.40
31819;DHT22;18384;48.860;9.188;2023-04-06T13:21:02;13.40;59.50
31819;DHT22;18384;48.860;9.188;2023-04-06T13:23:28;13.40;58.00
31819;DHT22;18384;48.860;9.188;2023-04-06T13:26:01;13.30;57.90
31819;DHT22;18384;48.860;9.188;2023-04-06T13:28:29;13.40;60.00
31819;DHT22;18384;48.860;9.188;2023-04-06T13:30:57;13.50;60.10
31819;DHT22;18384;48.860;9.188;2023-04-06T13:33:24;13.50;57.30
31819;DHT22;18384;48.860;9.188;2023-04-06T13:35:50;13.50;57.60
31819;DHT22;18384;48.860;9.188;2023-04-06T13:38:16;13.40;57.60
31819;DHT22;18384;48.860;9.188;2023-04-06T13:40:42;13.40;61.10
31819;DHT22;18384;48.860;9.188;2023-04-06T13:43:08;13.40;58.40
31819;DHT22;18384;48.860;9.188;2023-04-06T13:45:34;13.40;57.80
31819;DHT22;18384;48.860;9.188;2023-04-06T13:48:01;13.50;57.20
31819;DHT22;18384;48.860;9.188;2023-04-06T13:50:27;13.60;58.90
31819;DHT22;18384;48.860;9.188;2023-04-06T13:52:54;13.70;58.30
31819;DHT22;18384;48.860;9.188;2023-04-06T13:55:21;13.80;57.90
31819;DHT22;18384;48.860;9.188;2023-04-06T13:57:50;13.90;58.10
31819;DHT22;18384;48.860;9.188;2023-04-06T14:00:17;14.00;57.60
31819;DHT22;18384;48.860;9.188;2023-04-06T14:02:43;13.90;56.60
31819;DHT22;18384;48.860;9.188;2023-04-06T14:05:10;13.90;56.10
31819;DHT22;18384;48.860;9.188;2023-04-06T14:07:36;13.90;55.70
31819;DHT22;18384;48.860;9.188;2023-04-06T14:10:03;13.90;55.10
31819;DHT22;18384;48.860;9.188;2023-04-06T14:12:29;13.90;55.10
31819;DHT22;18384;48.860;9.188;2023-04-06T14:14:57;15.50;56.20
31819;DHT22;18384;48.860;9.188;2023-04-06T14:17:23;13.90;55.90
31819;DHT22;18384;48.860;9.188;2023-04-06T14:19:49;13.90;55.80
31819;DHT22;18384;48.860;9.188;2023-04-06T14:22:16;14.10;57.40
31819;DHT22;18384;48.860;9.188;2023-04-06T14:24:43;14.10;56.60
31819;DHT22;18384;48.860;9.188;2023-04-06T14:27:09;14.10;56.80
31819;DHT22;18384;48.860;9.188;2023-04-06T14:29:35;14.30;56.50
31819;DHT22;18384;48.860;9.188;2023-04-06T14:32:01;14.30;54.70
31819;DHT22;18384;48.860;9.188;2023-04-06T14:34:28;14.20;55.00
31819;DHT22;18384;48.860;9.188;2023-04-06T14:36:54;14.20;54.80
31819;DHT22;18384;48.860;9.188;2023-04-06T14:39:20;14.20;54.60
31819;DHT22;18384;48.860;9.188;2023-04-06T14:41:47;14.20;55.20
31819;DHT22;18384;48.860;9.188;2023-04-06T14:44:14;14.10;54.00
31819;DHT22;18384;48.860;9.188;2023-04-06T14:46:41;14.10;54.60
31819;DHT22;18384;48.860;9.188;2023-04-06T14:49:07;14.10;54.50
31819;DHT22;18384;48.860;9.188;2023-04-06T14:51:36;14.10;54.30
31819;DHT22;18384;48.860;9.188;2023-04-06T14:54:03;14.20;56.30
31819;DHT22;18384;48.860;9.188;2023-04-06T14:56:29;14.20;55.70
31819;DHT22;18384;48.860;9.188;2023-04-06T14:58:58;14.10;55.30
31819;DHT22;18384;48.860;9.188;2023-04-06T15:01:27;14.00;54.90
31819;DHT22;18384;48.860;9.188;2023-04-06T15:03:53;14.00;56.60
31819;DHT22;18384;48.860;9.188;2023-04-06T15:06:19;14.00;55.80
31819;DHT22;18384;48.860;9.188;2023-04-06T15:08:47;14.00;55.20
31819;DHT22;18384;48.860;9.188;2023-04-06T15:11:13;14.10;55.70
31819;DHT22;18384;48.860;9.188;2023-04-06T15:13:40;14.10;56.30
31819;DHT22;18384;48.860;9.188;2023-04-06T15:16:07;14.10;56.00
31819;DHT22;18384;48.860;9.188;2023-04-06T15:18:34;14.10;55.80
31819;DHT22;18384;48.860;9.188;2023-04-06T15:21:00;14.10;55.00
31819;DHT22;18384;48.860;9.188;2023-04-06T15:23:26;13.90;55.40
31819;DHT22;18384;48.860;9.188;2023-04-06T15:25:55;13.80;55.10
31819;DHT22;18384;48.860;9.188;2023-04-06T15:28:21;13.70;55.70
31819;DHT22;18384;48.860;9.188;2023-04-06T15:30:48;13.60;55.40
31819;DHT22;18384;48.860;9.188;2023-04-06T15:33:14;13.60;55.40
31819;DHT22;18384;48.860;9.188;2023-04-06T15:35:40;13.60;55.70
31819;DHT22;18384;48.860;9.188;2023-04-06T15:38:10;13.60;55.40
31819;DHT22;18384;48.860;9.188;2023-04-06T15:40:45;13.60;55.30
31819;DHT22;18384;48.860;9.188;2023-04-06T15:43:13;13.60;55.60
31819;DHT22;18384;48.860;9.188;2023-04-06T15:45:39;13.60;55.40
31819;DHT22;18384;48.860;9.188;2023-04-06T15:48:06;13.50;55.30